KSQI/SQI METAR and TAF weather

Enter ICAO airport designator
Station Type Date Time Source
KSQI METAR 2021/05/11 21:56 UTC NOAA

KSQI 112156Z 03009KT 10SM CLR 15/M01 A3032 RMK AO2 SLP133 T01501011


Station Type Date Time Source
KSQI Decoded METAR 2021/05/11 21:56 UTC NOAA

Sterling Rockfalls, IL, United States (KSQI) 41-45N 089-40W
May 11, 2021 - 05:56 PM EDT / 2021.05.11 2156 UTC
Wind: from the NNE (030 degrees) at 10 MPH (9 KT):0
Visibility: 10 mile(s):0
Sky conditions: clear
Temperature: 59.0 F (15.0 C)
Dew Point: 30.0 F (-1.1 C)
Relative Humidity: 33%
Pressure (altimeter): 30.32 in. Hg (1026 hPa)
ob: KSQI 112156Z 03009KT 10SM CLR 15/M01 A3032 RMK AO2 SLP133 T01501011
cycle: 22

Station Type Date Time Source
KSQI TAF UTC NOAA

Error!

Example: see airport list